TKJ3TH LTFJ-EDDF
Flight info
| Callsign | TKJ3TH |
|---|---|
| Flight time | 2h 39m |
| Altitude | 36000 |
| Route | VADEN N618 BAKLO DCT XANEX DCT BESLI DCT UTEKA DCT BABIT DCT GOTAR DCT ABRUK DCT SIMBA DCT AKINI T161 DEBHI DEBHI1B |
| Aircraft | B38M/M-SDE1FGHILORVWXY/HB1 |
Departure
| Time | 2026-05-07 04:21 |
|---|---|
| Airport | Istanbul Sabiha Gökçen International Airport (LTFJ) |
Arrival
| Time | 2026-05-07 07:01 |
|---|---|
| Airport | Frankfurt Main Airport (EDDF) |
| Time | Latitude | Longitude | Altitude | Speed | Heading |
|---|---|---|---|---|---|
| 2026-05-07 04:03 | 40.90538 | 29.31457 | 313 ft | 0 kts | 334° |
| 2026-05-07 04:10 | 40.90525 | 29.31465 | 312 ft | 4 kts | 336° |
| 2026-05-07 04:11 | 40.90501 | 29.31479 | 312 ft | 4 kts | 331° |
| 2026-05-07 04:11 | 40.90478 | 29.31498 | 313 ft | 4 kts | 322° |
| 2026-05-07 04:11 | 40.90458 | 29.31521 | 313 ft | 3 kts | 316° |
| 2026-05-07 04:11 | 40.90453 | 29.31527 | 312 ft | 0 kts | 316° |
| 2026-05-07 04:14 | 40.90461 | 29.31516 | 313 ft | 5 kts | 310° |
| 2026-05-07 04:14 | 40.90451 | 29.31447 | 313 ft | 10 kts | 224° |
| 2026-05-07 04:15 | 40.90383 | 29.31454 | 313 ft | 11 kts | 152° |
| 2026-05-07 04:15 | 40.90307 | 29.31496 | 313 ft | 12 kts | 179° |
| 2026-05-07 04:15 | 40.90242 | 29.31403 | 313 ft | 19 kts | 245° |
| 2026-05-07 04:15 | 40.90168 | 29.31198 | 313 ft | 29 kts | 243° |
| 2026-05-07 04:16 | 40.90100 | 29.31020 | 313 ft | 14 kts | 236° |
| 2026-05-07 04:16 | 40.90013 | 29.31001 | 313 ft | 15 kts | 155° |
| 2026-05-07 04:16 | 40.89898 | 29.31065 | 313 ft | 22 kts | 160° |
| 2026-05-07 04:16 | 40.89762 | 29.31146 | 313 ft | 18 kts | 140° |
| 2026-05-07 04:17 | 40.89654 | 29.31237 | 313 ft | 19 kts | 155° |
| 2026-05-07 04:17 | 40.89528 | 29.31318 | 310 ft | 22 kts | 153° |
| 2026-05-07 04:17 | 40.89382 | 29.31413 | 305 ft | 24 kts | 154° |
| 2026-05-07 04:17 | 40.89277 | 29.31473 | 304 ft | 11 kts | 177° |
| 2026-05-07 04:18 | 40.89207 | 29.31428 | 303 ft | 12 kts | 186° |
| 2026-05-07 04:18 | 40.89126 | 29.31421 | 304 ft | 13 kts | 224° |
| 2026-05-07 04:18 | 40.89077 | 29.31298 | 302 ft | 20 kts | 244° |
| 2026-05-07 04:18 | 40.89001 | 29.31093 | 302 ft | 30 kts | 244° |
| 2026-05-07 04:19 | 40.88914 | 29.30856 | 297 ft | 28 kts | 244° |
| 2026-05-07 04:19 | 40.88824 | 29.30613 | 291 ft | 31 kts | 244° |
| 2026-05-07 04:19 | 40.88733 | 29.30364 | 283 ft | 23 kts | 244° |
| 2026-05-07 04:19 | 40.88674 | 29.30210 | 281 ft | 13 kts | 230° |
| 2026-05-07 04:20 | 40.88596 | 29.30209 | 280 ft | 12 kts | 154° |
| 2026-05-07 04:20 | 40.88519 | 29.30267 | 281 ft | 13 kts | 128° |
| 2026-05-07 04:20 | 40.88529 | 29.30375 | 284 ft | 13 kts | 63° |
| 2026-05-07 04:21 | 40.88892 | 29.31359 | 300 ft | 123 kts | 64° |
| 2026-05-07 04:21 | 40.89346 | 29.32595 | 355 ft | 170 kts | 64° |
| 2026-05-07 04:21 | 40.89880 | 29.34091 | 797 ft | 190 kts | 65° |
| 2026-05-07 04:21 | 40.90417 | 29.35709 | 1572 ft | 191 kts | 77° |
| 2026-05-07 04:22 | 40.90369 | 29.37412 | 2323 ft | 194 kts | 108° |
| 2026-05-07 04:22 | 40.89846 | 29.39179 | 2688 ft | 220 kts | 109° |
| 2026-05-07 04:22 | 40.89561 | 29.41275 | 3122 ft | 245 kts | 96° |
| 2026-05-07 04:22 | 40.89380 | 29.43606 | 3676 ft | 263 kts | 95° |
| 2026-05-07 04:23 | 40.89527 | 29.46076 | 4267 ft | 277 kts | 68° |
| 2026-05-07 04:23 | 40.90316 | 29.48332 | 5233 ft | 276 kts | 61° |
| 2026-05-07 04:23 | 40.91145 | 29.50653 | 6092 ft | 280 kts | 61° |
| 2026-05-07 04:23 | 40.91989 | 29.52996 | 6827 ft | 285 kts | 61° |
| 2026-05-07 04:24 | 40.92849 | 29.55366 | 6988 ft | 285 kts | 60° |
| 2026-05-07 04:24 | 40.93989 | 29.57450 | 7332 ft | 275 kts | 31° |
| 2026-05-07 04:24 | 40.95689 | 29.58436 | 8237 ft | 267 kts | 8° |
| 2026-05-07 04:24 | 40.97548 | 29.58549 | 8987 ft | 269 kts | 349° |
| 2026-05-07 04:25 | 40.99302 | 29.57727 | 9837 ft | 271 kts | 329° |
| 2026-05-07 04:25 | 41.00982 | 29.56503 | 10418 ft | 283 kts | 333° |
| 2026-05-07 04:25 | 41.02802 | 29.55295 | 10737 ft | 303 kts | 333° |
| 2026-05-07 04:25 | 41.04752 | 29.54010 | 11029 ft | 322 kts | 333° |
| 2026-05-07 04:26 | 41.06807 | 29.52652 | 11447 ft | 336 kts | 333° |
| 2026-05-07 04:26 | 41.08902 | 29.51252 | 12183 ft | 338 kts | 333° |
| 2026-05-07 04:26 | 41.11011 | 29.49825 | 12903 ft | 343 kts | 333° |
| 2026-05-07 04:26 | 41.13142 | 29.48374 | 13641 ft | 346 kts | 333° |
| 2026-05-07 04:27 | 41.15293 | 29.46904 | 14317 ft | 349 kts | 333° |
| 2026-05-07 04:27 | 41.17463 | 29.45418 | 14974 ft | 353 kts | 333° |
| 2026-05-07 04:27 | 41.19653 | 29.43916 | 15630 ft | 356 kts | 333° |
| 2026-05-07 04:27 | 41.21867 | 29.42397 | 16271 ft | 360 kts | 333° |
| 2026-05-07 04:28 | 41.24072 | 29.40882 | 16891 ft | 363 kts | 333° |
| 2026-05-07 04:28 | 41.26321 | 29.39335 | 17537 ft | 365 kts | 333° |
| 2026-05-07 04:28 | 41.28593 | 29.37771 | 18115 ft | 370 kts | 333° |
| 2026-05-07 04:28 | 41.30885 | 29.36192 | 18692 ft | 372 kts | 333° |
| 2026-05-07 04:29 | 41.33197 | 29.34599 | 19249 ft | 374 kts | 333° |
| 2026-05-07 04:29 | 41.35510 | 29.33002 | 19802 ft | 376 kts | 333° |
| 2026-05-07 04:29 | 41.37837 | 29.31394 | 20363 ft | 378 kts | 333° |
| 2026-05-07 04:29 | 41.40176 | 29.29776 | 20910 ft | 379 kts | 333° |
| 2026-05-07 04:30 | 41.42525 | 29.28149 | 21439 ft | 381 kts | 333° |
| 2026-05-07 04:30 | 41.44887 | 29.26512 | 21970 ft | 383 kts | 333° |
| 2026-05-07 04:30 | 41.47258 | 29.24868 | 22495 ft | 385 kts | 333° |
| 2026-05-07 04:30 | 41.49636 | 29.23215 | 23054 ft | 386 kts | 333° |
| 2026-05-07 04:31 | 41.52032 | 29.21549 | 23523 ft | 389 kts | 333° |
| 2026-05-07 04:31 | 41.54437 | 29.19876 | 23973 ft | 391 kts | 333° |
| 2026-05-07 04:31 | 41.56854 | 29.18192 | 24374 ft | 393 kts | 333° |
| 2026-05-07 04:31 | 41.59283 | 29.16498 | 24774 ft | 395 kts | 333° |
| 2026-05-07 04:32 | 41.61699 | 29.14741 | 25156 ft | 397 kts | 327° |
| 2026-05-07 04:32 | 41.63761 | 29.12274 | 25558 ft | 401 kts | 311° |
| 2026-05-07 04:32 | 41.65191 | 29.09039 | 25921 ft | 409 kts | 295° |
| 2026-05-07 04:32 | 41.65881 | 29.05326 | 26355 ft | 417 kts | 280° |
| 2026-05-07 04:33 | 41.66058 | 29.01490 | 26737 ft | 421 kts | 277° |
| 2026-05-07 04:33 | 41.66195 | 28.97569 | 27063 ft | 424 kts | 277° |
| 2026-05-07 04:33 | 41.66308 | 28.93618 | 27436 ft | 426 kts | 277° |
| 2026-05-07 04:33 | 41.66404 | 28.89657 | 27776 ft | 428 kts | 276° |
| 2026-05-07 04:34 | 41.66492 | 28.85670 | 28115 ft | 430 kts | 276° |
| 2026-05-07 04:34 | 41.66577 | 28.81662 | 28457 ft | 432 kts | 276° |
| 2026-05-07 04:34 | 41.66659 | 28.77639 | 28793 ft | 434 kts | 276° |
| 2026-05-07 04:34 | 41.66741 | 28.73596 | 29117 ft | 436 kts | 276° |
| 2026-05-07 04:35 | 41.66821 | 28.69532 | 29425 ft | 438 kts | 276° |
| 2026-05-07 04:35 | 41.66900 | 28.65450 | 29745 ft | 440 kts | 276° |
| 2026-05-07 04:35 | 41.66974 | 28.61352 | 30052 ft | 442 kts | 276° |
| 2026-05-07 04:35 | 41.67026 | 28.57233 | 30315 ft | 444 kts | 276° |
| 2026-05-07 04:36 | 41.67078 | 28.53090 | 30581 ft | 446 kts | 275° |
| 2026-05-07 04:36 | 41.67129 | 28.48951 | 30929 ft | 445 kts | 275° |
| 2026-05-07 04:36 | 41.67176 | 28.44819 | 31297 ft | 444 kts | 275° |
| 2026-05-07 04:36 | 41.67220 | 28.40697 | 31651 ft | 443 kts | 275° |
| 2026-05-07 04:37 | 41.67263 | 28.36580 | 32008 ft | 442 kts | 275° |
| 2026-05-07 04:37 | 41.67305 | 28.32473 | 32350 ft | 441 kts | 275° |
| 2026-05-07 04:37 | 41.67331 | 28.29763 | 32604 ft | 440 kts | 275° |
| 2026-05-07 04:37 | 41.67371 | 28.25675 | 32987 ft | 438 kts | 275° |
| 2026-05-07 04:38 | 41.67408 | 28.21600 | 33336 ft | 437 kts | 275° |
| 2026-05-07 04:38 | 41.67444 | 28.17537 | 33681 ft | 436 kts | 275° |
| 2026-05-07 04:38 | 41.67479 | 28.13481 | 34035 ft | 435 kts | 275° |
| 2026-05-07 04:38 | 41.67512 | 28.09438 | 34336 ft | 434 kts | 275° |
| 2026-05-07 04:39 | 41.67690 | 28.05432 | 34605 ft | 428 kts | 285° |
| 2026-05-07 04:39 | 41.68626 | 28.01717 | 34904 ft | 419 kts | 300° |
| 2026-05-07 04:39 | 41.70076 | 27.98348 | 35111 ft | 418 kts | 303° |
| 2026-05-07 04:39 | 41.71585 | 27.95020 | 35312 ft | 419 kts | 304° |
| 2026-05-07 04:40 | 41.73128 | 27.91722 | 35555 ft | 418 kts | 304° |
| 2026-05-07 04:40 | 41.74688 | 27.88434 | 35800 ft | 417 kts | 304° |
| 2026-05-07 04:40 | 41.76252 | 27.85166 | 36029 ft | 417 kts | 304° |
| 2026-05-07 04:40 | 41.77824 | 27.81894 | 36118 ft | 418 kts | 304° |
| 2026-05-07 04:41 | 41.80944 | 27.75403 | 36112 ft | 416 kts | 304° |
| 2026-05-07 04:41 | 41.84077 | 27.68873 | 36103 ft | 417 kts | 304° |
| 2026-05-07 04:42 | 41.87217 | 27.62316 | 36101 ft | 418 kts | 304° |
| 2026-05-07 04:42 | 41.90351 | 27.55756 | 36102 ft | 418 kts | 304° |
| 2026-05-07 04:43 | 41.93487 | 27.49178 | 36101 ft | 418 kts | 304° |
| 2026-05-07 04:43 | 41.96618 | 27.42597 | 36101 ft | 419 kts | 304° |
| 2026-05-07 04:44 | 41.99755 | 27.35988 | 36105 ft | 419 kts | 304° |
| 2026-05-07 04:44 | 42.02884 | 27.29383 | 36102 ft | 419 kts | 304° |
| 2026-05-07 04:45 | 42.06011 | 27.22774 | 36109 ft | 419 kts | 305° |
| 2026-05-07 04:45 | 42.09762 | 27.16836 | 36099 ft | 418 kts | 312° |
| 2026-05-07 04:46 | 42.13601 | 27.11039 | 36111 ft | 417 kts | 313° |
| 2026-05-07 04:46 | 42.17471 | 27.05211 | 36113 ft | 417 kts | 312° |
| 2026-05-07 04:47 | 42.21345 | 26.99369 | 36098 ft | 417 kts | 313° |
| 2026-05-07 04:47 | 42.25212 | 26.93524 | 36108 ft | 417 kts | 312° |
| 2026-05-07 04:48 | 42.29076 | 26.87673 | 36103 ft | 417 kts | 312° |
| 2026-05-07 04:48 | 42.32937 | 26.81815 | 36125 ft | 417 kts | 312° |
| 2026-05-07 04:49 | 42.36797 | 26.75946 | 36112 ft | 418 kts | 312° |
| 2026-05-07 04:49 | 42.40651 | 26.70076 | 36100 ft | 416 kts | 312° |
| 2026-05-07 04:50 | 42.44489 | 26.64216 | 36102 ft | 416 kts | 312° |
| 2026-05-07 04:50 | 42.48330 | 26.58343 | 36109 ft | 416 kts | 312° |
| 2026-05-07 04:51 | 42.52141 | 26.52504 | 36104 ft | 416 kts | 312° |
| 2026-05-07 04:51 | 42.55446 | 26.46137 | 36132 ft | 413 kts | 300° |
| 2026-05-07 04:52 | 42.58205 | 26.39280 | 36100 ft | 414 kts | 300° |
| 2026-05-07 04:52 | 42.60938 | 26.32387 | 36103 ft | 415 kts | 300° |
| 2026-05-07 04:53 | 42.63659 | 26.25486 | 36093 ft | 414 kts | 300° |
| 2026-05-07 04:53 | 42.66374 | 26.18580 | 36094 ft | 414 kts | 299° |
| 2026-05-07 04:54 | 42.69080 | 26.11680 | 36091 ft | 413 kts | 299° |
| 2026-05-07 04:54 | 42.71777 | 26.04784 | 36069 ft | 412 kts | 299° |
| 2026-05-07 04:55 | 42.74467 | 25.97893 | 36084 ft | 413 kts | 299° |
| 2026-05-07 04:55 | 42.77155 | 25.90988 | 36073 ft | 414 kts | 298° |
| 2026-05-07 04:56 | 42.79835 | 25.84088 | 36065 ft | 415 kts | 298° |
| 2026-05-07 04:56 | 42.82528 | 25.77138 | 36058 ft | 415 kts | 298° |
| 2026-05-07 04:57 | 42.85219 | 25.70176 | 36066 ft | 415 kts | 298° |
| 2026-05-07 04:57 | 42.87908 | 25.63202 | 36046 ft | 416 kts | 298° |
| 2026-05-07 04:58 | 42.90612 | 25.56174 | 36056 ft | 418 kts | 298° |
| 2026-05-07 04:58 | 42.93301 | 25.49166 | 36054 ft | 418 kts | 298° |
| 2026-05-07 04:59 | 42.95993 | 25.42131 | 36049 ft | 418 kts | 298° |
| 2026-05-07 04:59 | 42.98680 | 25.35094 | 36049 ft | 418 kts | 298° |
| 2026-05-07 05:00 | 43.01364 | 25.28046 | 36049 ft | 418 kts | 298° |
| 2026-05-07 05:00 | 43.04028 | 25.21035 | 36051 ft | 418 kts | 297° |
| 2026-05-07 05:01 | 43.06702 | 25.13979 | 36051 ft | 418 kts | 297° |
| 2026-05-07 05:01 | 43.09376 | 25.06908 | 36037 ft | 418 kts | 297° |
| 2026-05-07 05:02 | 43.12044 | 24.99841 | 36036 ft | 418 kts | 297° |
| 2026-05-07 05:02 | 43.14252 | 24.92494 | 36039 ft | 418 kts | 292° |
| 2026-05-07 05:03 | 43.16407 | 24.85138 | 36033 ft | 418 kts | 292° |
| 2026-05-07 05:03 | 43.18588 | 24.77755 | 36028 ft | 418 kts | 292° |
| 2026-05-07 05:04 | 43.20767 | 24.70364 | 36031 ft | 418 kts | 292° |
| 2026-05-07 05:04 | 43.22942 | 24.62969 | 36032 ft | 418 kts | 292° |
| 2026-05-07 05:05 | 43.25116 | 24.55554 | 36030 ft | 418 kts | 292° |
| 2026-05-07 05:05 | 43.27284 | 24.48138 | 36029 ft | 418 kts | 292° |
| 2026-05-07 05:06 | 43.29430 | 24.40776 | 36029 ft | 418 kts | 292° |
| 2026-05-07 05:06 | 43.31584 | 24.33368 | 36024 ft | 418 kts | 292° |
| 2026-05-07 05:07 | 43.33731 | 24.25959 | 36031 ft | 418 kts | 292° |
| 2026-05-07 05:07 | 43.35878 | 24.18527 | 36031 ft | 418 kts | 292° |
| 2026-05-07 05:08 | 43.38022 | 24.11089 | 36028 ft | 419 kts | 291° |
| 2026-05-07 05:08 | 43.40193 | 24.03631 | 36026 ft | 419 kts | 294° |
| 2026-05-07 05:09 | 43.42562 | 23.96299 | 36038 ft | 420 kts | 294° |
| 2026-05-07 05:09 | 43.44908 | 23.88948 | 36034 ft | 419 kts | 294° |
| 2026-05-07 05:10 | 43.47249 | 23.81582 | 36035 ft | 420 kts | 293° |
| 2026-05-07 05:10 | 43.49572 | 23.74253 | 36036 ft | 421 kts | 293° |
| 2026-05-07 05:11 | 43.51907 | 23.66867 | 36044 ft | 421 kts | 293° |
| 2026-05-07 05:11 | 43.54240 | 23.59464 | 36044 ft | 421 kts | 293° |
| 2026-05-07 05:12 | 43.56565 | 23.52065 | 36047 ft | 421 kts | 292° |
| 2026-05-07 05:12 | 43.58887 | 23.44656 | 36049 ft | 421 kts | 292° |
| 2026-05-07 05:13 | 43.61205 | 23.37240 | 36047 ft | 421 kts | 292° |
| 2026-05-07 05:13 | 43.63518 | 23.29818 | 36052 ft | 421 kts | 292° |
| 2026-05-07 05:14 | 43.65828 | 23.22382 | 36063 ft | 421 kts | 292° |
| 2026-05-07 05:14 | 43.68114 | 23.15003 | 36055 ft | 420 kts | 292° |
| 2026-05-07 05:15 | 43.70409 | 23.07575 | 36054 ft | 420 kts | 291° |
| 2026-05-07 05:15 | 43.72696 | 23.00153 | 36056 ft | 420 kts | 291° |
| 2026-05-07 05:16 | 43.74979 | 22.92720 | 36060 ft | 420 kts | 291° |
| 2026-05-07 05:16 | 43.77256 | 22.85288 | 36059 ft | 419 kts | 291° |
| 2026-05-07 05:17 | 43.79527 | 22.77852 | 36058 ft | 419 kts | 291° |
| 2026-05-07 05:17 | 43.81779 | 22.70459 | 36056 ft | 419 kts | 291° |
| 2026-05-07 05:18 | 43.84040 | 22.63013 | 36055 ft | 419 kts | 291° |
| 2026-05-07 05:18 | 43.86297 | 22.55560 | 36051 ft | 420 kts | 290° |
| 2026-05-07 05:19 | 43.88552 | 22.48099 | 36051 ft | 420 kts | 290° |
| 2026-05-07 05:19 | 43.90841 | 22.40633 | 36046 ft | 421 kts | 296° |
| 2026-05-07 05:20 | 43.92524 | 22.37314 | 36069 ft | 423 kts | 308° |
| 2026-05-07 05:20 | 43.94424 | 22.34181 | 36032 ft | 425 kts | 307° |
| 2026-05-07 05:20 | 43.98220 | 22.27922 | 36065 ft | 424 kts | 307° |
| 2026-05-07 05:21 | 44.03969 | 22.18566 | 36061 ft | 424 kts | 307° |
| 2026-05-07 05:22 | 44.07777 | 22.12366 | 36053 ft | 424 kts | 307° |
| 2026-05-07 05:22 | 44.11609 | 22.06113 | 36039 ft | 424 kts | 307° |
| 2026-05-07 05:23 | 44.15435 | 21.99855 | 36058 ft | 425 kts | 307° |
| 2026-05-07 05:23 | 44.19262 | 21.93584 | 36060 ft | 424 kts | 307° |
| 2026-05-07 05:24 | 44.23090 | 21.87297 | 36053 ft | 425 kts | 307° |
| 2026-05-07 05:24 | 44.26881 | 21.81056 | 36044 ft | 425 kts | 307° |
| 2026-05-07 05:25 | 44.30696 | 21.74762 | 36049 ft | 425 kts | 306° |
| 2026-05-07 05:25 | 44.34514 | 21.68451 | 36047 ft | 425 kts | 306° |
| 2026-05-07 05:26 | 44.38326 | 21.62133 | 36042 ft | 425 kts | 306° |
| 2026-05-07 05:26 | 44.41494 | 21.56874 | 36045 ft | 425 kts | 306° |
| 2026-05-07 05:27 | 44.45297 | 21.50546 | 36044 ft | 425 kts | 306° |
| 2026-05-07 05:27 | 44.49109 | 21.44190 | 36033 ft | 426 kts | 306° |
| 2026-05-07 05:28 | 44.52914 | 21.37831 | 36035 ft | 426 kts | 306° |
| 2026-05-07 05:28 | 44.56718 | 21.31460 | 36031 ft | 426 kts | 306° |
| 2026-05-07 05:29 | 44.60491 | 21.25126 | 36025 ft | 426 kts | 306° |
| 2026-05-07 05:29 | 44.64288 | 21.18739 | 36034 ft | 426 kts | 305° |
| 2026-05-07 05:30 | 44.68088 | 21.12330 | 36018 ft | 427 kts | 305° |
| 2026-05-07 05:30 | 44.71883 | 21.05917 | 36026 ft | 427 kts | 305° |
| 2026-05-07 05:31 | 44.75676 | 20.99493 | 36027 ft | 427 kts | 305° |
| 2026-05-07 05:31 | 44.79464 | 20.93062 | 36035 ft | 427 kts | 304° |
| 2026-05-07 05:32 | 44.83257 | 20.86608 | 36027 ft | 428 kts | 304° |
| 2026-05-07 05:32 | 44.87057 | 20.80127 | 36021 ft | 428 kts | 304° |
| 2026-05-07 05:33 | 44.90849 | 20.73644 | 36023 ft | 428 kts | 304° |
| 2026-05-07 05:33 | 44.94614 | 20.67195 | 36021 ft | 428 kts | 304° |
| 2026-05-07 05:34 | 44.98402 | 20.60690 | 36023 ft | 430 kts | 304° |
| 2026-05-07 05:34 | 45.02202 | 20.54149 | 36018 ft | 430 kts | 304° |
| 2026-05-07 05:35 | 45.05998 | 20.47603 | 36017 ft | 430 kts | 304° |
| 2026-05-07 05:35 | 45.09789 | 20.41047 | 36017 ft | 430 kts | 304° |
| 2026-05-07 05:36 | 45.13576 | 20.34484 | 36033 ft | 431 kts | 304° |
| 2026-05-07 05:36 | 45.17363 | 20.27904 | 36018 ft | 431 kts | 304° |
| 2026-05-07 05:37 | 45.21148 | 20.21315 | 36002 ft | 431 kts | 304° |
| 2026-05-07 05:37 | 45.24925 | 20.14723 | 36021 ft | 431 kts | 304° |
| 2026-05-07 05:38 | 45.28677 | 20.08160 | 36040 ft | 431 kts | 304° |
| 2026-05-07 05:38 | 45.32454 | 20.01537 | 36016 ft | 432 kts | 304° |
| 2026-05-07 05:39 | 45.36230 | 19.94900 | 36011 ft | 431 kts | 303° |
| 2026-05-07 05:39 | 45.40007 | 19.88247 | 36010 ft | 432 kts | 303° |
| 2026-05-07 05:40 | 45.43779 | 19.81586 | 36016 ft | 432 kts | 303° |
| 2026-05-07 05:40 | 45.47538 | 19.74932 | 36014 ft | 431 kts | 303° |
| 2026-05-07 05:41 | 45.51301 | 19.68256 | 36008 ft | 432 kts | 303° |
| 2026-05-07 05:41 | 45.55057 | 19.61576 | 36006 ft | 432 kts | 303° |
| 2026-05-07 05:42 | 45.58812 | 19.54883 | 36000 ft | 432 kts | 303° |
| 2026-05-07 05:42 | 45.62534 | 19.48231 | 36002 ft | 432 kts | 303° |
| 2026-05-07 05:43 | 45.66281 | 19.41521 | 36002 ft | 432 kts | 303° |
| 2026-05-07 05:43 | 45.70025 | 19.34798 | 36000 ft | 432 kts | 303° |
| 2026-05-07 05:44 | 45.73765 | 19.28068 | 36007 ft | 432 kts | 303° |
| 2026-05-07 05:44 | 45.77499 | 19.21336 | 35998 ft | 431 kts | 303° |
| 2026-05-07 05:45 | 45.81235 | 19.14584 | 35997 ft | 434 kts | 302° |
| 2026-05-07 05:45 | 45.84980 | 19.07801 | 35994 ft | 434 kts | 302° |
| 2026-05-07 05:46 | 45.88723 | 19.01007 | 35989 ft | 434 kts | 302° |
| 2026-05-07 05:46 | 45.92459 | 18.94205 | 35989 ft | 433 kts | 302° |
| 2026-05-07 05:47 | 45.95597 | 18.86996 | 36010 ft | 430 kts | 295° |
| 2026-05-07 05:47 | 45.98657 | 18.79593 | 35988 ft | 431 kts | 295° |
| 2026-05-07 05:48 | 46.01714 | 18.72167 | 35985 ft | 431 kts | 295° |
| 2026-05-07 05:48 | 46.04765 | 18.64733 | 35986 ft | 431 kts | 295° |
| 2026-05-07 05:49 | 46.07809 | 18.57295 | 35980 ft | 431 kts | 295° |
| 2026-05-07 05:49 | 46.10851 | 18.49842 | 35994 ft | 432 kts | 295° |
| 2026-05-07 05:50 | 46.13892 | 18.42372 | 35990 ft | 432 kts | 294° |
| 2026-05-07 05:50 | 46.16929 | 18.34892 | 35988 ft | 432 kts | 294° |
| 2026-05-07 05:51 | 46.19962 | 18.27399 | 35986 ft | 432 kts | 294° |
| 2026-05-07 05:51 | 46.22967 | 18.19957 | 36001 ft | 432 kts | 294° |
| 2026-05-07 05:52 | 46.25988 | 18.12456 | 35983 ft | 432 kts | 294° |
| 2026-05-07 05:52 | 46.29006 | 18.04942 | 35980 ft | 432 kts | 294° |
| 2026-05-07 05:53 | 46.32018 | 17.97420 | 35974 ft | 432 kts | 294° |
| 2026-05-07 05:53 | 46.35024 | 17.89894 | 35982 ft | 432 kts | 294° |
| 2026-05-07 05:54 | 46.38030 | 17.82346 | 35974 ft | 432 kts | 294° |
| 2026-05-07 05:54 | 46.41028 | 17.74800 | 35975 ft | 432 kts | 294° |
| 2026-05-07 05:55 | 46.44024 | 17.67236 | 35965 ft | 432 kts | 294° |
| 2026-05-07 05:55 | 46.46995 | 17.59715 | 35963 ft | 433 kts | 294° |
| 2026-05-07 05:56 | 46.49985 | 17.52123 | 35963 ft | 434 kts | 293° |
| 2026-05-07 05:56 | 46.52976 | 17.44512 | 35948 ft | 434 kts | 293° |
| 2026-05-07 05:57 | 46.55961 | 17.36891 | 35944 ft | 434 kts | 293° |
| 2026-05-07 05:57 | 46.58938 | 17.29271 | 35944 ft | 434 kts | 293° |
| 2026-05-07 05:58 | 46.61913 | 17.21631 | 35965 ft | 434 kts | 293° |
| 2026-05-07 05:58 | 46.64877 | 17.14004 | 35941 ft | 436 kts | 293° |
| 2026-05-07 05:59 | 46.67876 | 17.06261 | 35942 ft | 436 kts | 293° |
| 2026-05-07 05:59 | 46.70832 | 16.98609 | 35939 ft | 436 kts | 293° |
| 2026-05-07 06:00 | 46.73802 | 16.90896 | 35934 ft | 436 kts | 292° |
| 2026-05-07 06:00 | 46.76765 | 16.83184 | 35946 ft | 437 kts | 292° |
| 2026-05-07 06:01 | 46.79733 | 16.75433 | 35948 ft | 438 kts | 292° |
| 2026-05-07 06:01 | 46.82699 | 16.67667 | 35930 ft | 438 kts | 292° |
| 2026-05-07 06:02 | 46.85658 | 16.59895 | 35927 ft | 438 kts | 292° |
| 2026-05-07 06:02 | 46.88612 | 16.52117 | 35960 ft | 437 kts | 292° |
| 2026-05-07 06:03 | 46.91561 | 16.44332 | 35929 ft | 437 kts | 292° |
| 2026-05-07 06:03 | 46.94506 | 16.36538 | 35925 ft | 437 kts | 292° |
| 2026-05-07 06:04 | 46.97426 | 16.28790 | 35926 ft | 437 kts | 292° |
| 2026-05-07 06:04 | 47.00245 | 16.20920 | 35922 ft | 433 kts | 288° |
| 2026-05-07 06:05 | 47.02796 | 16.12898 | 35921 ft | 434 kts | 288° |
| 2026-05-07 06:05 | 47.05378 | 16.04885 | 35923 ft | 434 kts | 288° |
| 2026-05-07 06:06 | 47.07958 | 15.96873 | 35923 ft | 434 kts | 288° |
| 2026-05-07 06:06 | 47.10534 | 15.88849 | 35918 ft | 434 kts | 288° |
| 2026-05-07 06:07 | 47.13104 | 15.80819 | 35946 ft | 435 kts | 288° |
| 2026-05-07 06:07 | 47.15662 | 15.72800 | 35922 ft | 437 kts | 288° |
| 2026-05-07 06:08 | 47.18236 | 15.64707 | 35926 ft | 437 kts | 288° |
| 2026-05-07 06:08 | 47.20802 | 15.56611 | 35918 ft | 436 kts | 288° |
| 2026-05-07 06:09 | 47.23362 | 15.48510 | 35934 ft | 437 kts | 288° |
| 2026-05-07 06:09 | 47.25919 | 15.40392 | 35926 ft | 436 kts | 287° |
| 2026-05-07 06:10 | 47.28472 | 15.32260 | 35955 ft | 438 kts | 287° |
| 2026-05-07 06:10 | 47.31019 | 15.24123 | 35944 ft | 437 kts | 287° |
| 2026-05-07 06:11 | 47.33558 | 15.15983 | 35925 ft | 437 kts | 288° |
| 2026-05-07 06:11 | 47.36088 | 15.07852 | 35986 ft | 436 kts | 287° |
| 2026-05-07 06:12 | 47.38728 | 14.99760 | 35926 ft | 443 kts | 295° |
| 2026-05-07 06:12 | 47.42073 | 14.92151 | 35956 ft | 446 kts | 295° |
| 2026-05-07 06:13 | 47.45444 | 14.84455 | 35920 ft | 446 kts | 295° |
| 2026-05-07 06:13 | 47.48813 | 14.76762 | 35992 ft | 446 kts | 295° |
| 2026-05-07 06:14 | 47.52184 | 14.69042 | 35952 ft | 449 kts | 295° |
| 2026-05-07 06:14 | 47.55006 | 14.62565 | 35973 ft | 451 kts | 295° |
| 2026-05-07 06:15 | 47.58392 | 14.54771 | 35962 ft | 449 kts | 295° |
| 2026-05-07 06:15 | 47.61768 | 14.46979 | 35965 ft | 450 kts | 295° |
| 2026-05-07 06:16 | 47.65141 | 14.39171 | 36015 ft | 450 kts | 295° |
| 2026-05-07 06:16 | 47.68510 | 14.31350 | 35968 ft | 450 kts | 295° |
| 2026-05-07 06:17 | 47.71880 | 14.23505 | 35989 ft | 451 kts | 295° |
| 2026-05-07 06:17 | 47.75243 | 14.15652 | 35979 ft | 450 kts | 295° |
| 2026-05-07 06:18 | 47.78597 | 14.07796 | 35999 ft | 450 kts | 295° |
| 2026-05-07 06:18 | 47.81948 | 13.99929 | 35996 ft | 450 kts | 295° |
| 2026-05-07 06:19 | 47.85293 | 13.92049 | 35970 ft | 451 kts | 295° |
| 2026-05-07 06:19 | 47.88616 | 13.84201 | 35969 ft | 450 kts | 295° |
| 2026-05-07 06:20 | 47.91957 | 13.76287 | 35968 ft | 451 kts | 295° |
| 2026-05-07 06:20 | 47.95293 | 13.68362 | 35975 ft | 451 kts | 295° |
| 2026-05-07 06:21 | 47.98627 | 13.60417 | 35986 ft | 453 kts | 295° |
| 2026-05-07 06:21 | 48.01964 | 13.52442 | 35977 ft | 453 kts | 295° |
| 2026-05-07 06:22 | 48.05294 | 13.44461 | 35979 ft | 453 kts | 295° |
| 2026-05-07 06:22 | 48.10279 | 13.32466 | 35974 ft | 453 kts | 295° |
| 2026-05-07 06:23 | 48.13605 | 13.24435 | 35978 ft | 455 kts | 296° |
| 2026-05-07 06:23 | 48.16917 | 13.16417 | 35982 ft | 455 kts | 296° |
| 2026-05-07 06:24 | 48.20244 | 13.08345 | 35974 ft | 455 kts | 296° |
| 2026-05-07 06:24 | 48.23711 | 13.00386 | 35965 ft | 462 kts | 306° |
| 2026-05-07 06:25 | 48.27999 | 12.93169 | 35991 ft | 463 kts | 306° |
| 2026-05-07 06:25 | 48.32276 | 12.85909 | 35974 ft | 464 kts | 306° |
| 2026-05-07 06:26 | 48.36557 | 12.78631 | 35979 ft | 464 kts | 306° |
| 2026-05-07 06:26 | 48.40832 | 12.71343 | 35976 ft | 465 kts | 306° |
| 2026-05-07 06:27 | 48.45081 | 12.64081 | 35967 ft | 464 kts | 306° |
| 2026-05-07 06:27 | 48.49351 | 12.56763 | 35973 ft | 465 kts | 306° |
| 2026-05-07 06:28 | 48.53611 | 12.49441 | 35972 ft | 464 kts | 306° |
| 2026-05-07 06:28 | 48.57872 | 12.42097 | 35971 ft | 465 kts | 306° |
| 2026-05-07 06:29 | 48.62126 | 12.34745 | 35960 ft | 464 kts | 306° |
| 2026-05-07 06:29 | 48.66380 | 12.27372 | 35964 ft | 465 kts | 306° |
| 2026-05-07 06:30 | 48.70634 | 12.19980 | 35968 ft | 466 kts | 306° |
| 2026-05-07 06:30 | 48.74398 | 12.12230 | 35950 ft | 451 kts | 287° |
| 2026-05-07 06:31 | 48.75264 | 12.07743 | 35976 ft | 442 kts | 276° |
| 2026-05-07 06:31 | 48.75868 | 12.03142 | 35943 ft | 445 kts | 276° |
| 2026-05-07 06:31 | 48.76957 | 11.93929 | 35960 ft | 444 kts | 275° |
| 2026-05-07 06:32 | 48.77965 | 11.84691 | 35989 ft | 444 kts | 275° |
| 2026-05-07 06:32 | 48.78951 | 11.75431 | 35965 ft | 446 kts | 275° |
| 2026-05-07 06:33 | 48.79931 | 11.66145 | 35966 ft | 446 kts | 275° |
| 2026-05-07 06:33 | 48.80897 | 11.56866 | 35968 ft | 446 kts | 275° |
| 2026-05-07 06:34 | 48.81858 | 11.47573 | 35963 ft | 446 kts | 275° |
| 2026-05-07 06:34 | 48.82811 | 11.38278 | 35963 ft | 447 kts | 275° |
| 2026-05-07 06:35 | 48.83762 | 11.28937 | 35955 ft | 448 kts | 276° |
| 2026-05-07 06:35 | 48.84578 | 11.24356 | 35949 ft | 453 kts | 290° |
| 2026-05-07 06:35 | 48.86154 | 11.20262 | 35975 ft | 460 kts | 305° |
| 2026-05-07 06:36 | 48.90737 | 11.13327 | 35886 ft | 468 kts | 313° |
| 2026-05-07 06:36 | 48.93105 | 11.09959 | 35507 ft | 462 kts | 313° |
| 2026-05-07 06:36 | 48.95471 | 11.06627 | 34775 ft | 464 kts | 314° |
| 2026-05-07 06:37 | 48.97865 | 11.03267 | 33836 ft | 472 kts | 314° |
| 2026-05-07 06:37 | 49.00291 | 10.99864 | 32854 ft | 475 kts | 314° |
| 2026-05-07 06:37 | 49.02709 | 10.96471 | 32323 ft | 469 kts | 314° |
| 2026-05-07 06:37 | 49.05096 | 10.93116 | 31756 ft | 465 kts | 314° |
| 2026-05-07 06:38 | 49.07462 | 10.89786 | 31163 ft | 461 kts | 314° |
| 2026-05-07 06:38 | 49.09811 | 10.86471 | 30529 ft | 459 kts | 314° |
| 2026-05-07 06:38 | 49.12147 | 10.83170 | 29965 ft | 456 kts | 314° |
| 2026-05-07 06:38 | 49.14462 | 10.79893 | 29312 ft | 452 kts | 314° |
| 2026-05-07 06:39 | 49.16750 | 10.76651 | 28754 ft | 447 kts | 314° |
| 2026-05-07 06:39 | 49.19013 | 10.73436 | 28211 ft | 441 kts | 313° |
| 2026-05-07 06:39 | 49.21148 | 10.70093 | 27582 ft | 438 kts | 311° |
| 2026-05-07 06:39 | 49.23254 | 10.66765 | 27073 ft | 432 kts | 313° |
| 2026-05-07 06:40 | 49.25347 | 10.63481 | 26530 ft | 428 kts | 313° |
| 2026-05-07 06:40 | 49.27413 | 10.60243 | 26018 ft | 423 kts | 313° |
| 2026-05-07 06:40 | 49.29457 | 10.57036 | 25498 ft | 419 kts | 313° |
| 2026-05-07 06:40 | 49.31482 | 10.53856 | 24983 ft | 415 kts | 313° |
| 2026-05-07 06:41 | 49.33465 | 10.50736 | 24484 ft | 411 kts | 314° |
| 2026-05-07 06:41 | 49.35452 | 10.47607 | 24024 ft | 407 kts | 313° |
| 2026-05-07 06:41 | 49.37164 | 10.44248 | 23881 ft | 393 kts | 304° |
| 2026-05-07 06:41 | 49.38726 | 10.40821 | 23797 ft | 391 kts | 304° |
| 2026-05-07 06:42 | 49.40288 | 10.37406 | 23686 ft | 390 kts | 305° |
| 2026-05-07 06:42 | 49.41852 | 10.33983 | 23602 ft | 392 kts | 304° |
| 2026-05-07 06:42 | 49.43413 | 10.30555 | 23491 ft | 391 kts | 305° |
| 2026-05-07 06:42 | 49.44968 | 10.27140 | 23400 ft | 389 kts | 305° |
| 2026-05-07 06:43 | 49.46517 | 10.23733 | 23304 ft | 389 kts | 305° |
| 2026-05-07 06:43 | 49.48063 | 10.20327 | 23221 ft | 388 kts | 305° |
| 2026-05-07 06:43 | 49.49605 | 10.16927 | 23130 ft | 387 kts | 305° |
| 2026-05-07 06:43 | 49.51145 | 10.13526 | 23039 ft | 387 kts | 305° |
| 2026-05-07 06:44 | 49.52681 | 10.10132 | 22963 ft | 386 kts | 305° |
| 2026-05-07 06:44 | 49.54218 | 10.06728 | 22499 ft | 386 kts | 306° |
| 2026-05-07 06:44 | 49.55746 | 10.03340 | 21963 ft | 384 kts | 306° |
| 2026-05-07 06:44 | 49.57264 | 9.99969 | 21469 ft | 381 kts | 306° |
| 2026-05-07 06:45 | 49.58772 | 9.96618 | 20907 ft | 381 kts | 305° |
| 2026-05-07 06:45 | 49.60279 | 9.93262 | 20386 ft | 379 kts | 305° |
| 2026-05-07 06:45 | 49.61775 | 9.89929 | 19894 ft | 377 kts | 305° |
| 2026-05-07 06:45 | 49.63264 | 9.86608 | 19396 ft | 376 kts | 305° |
| 2026-05-07 06:46 | 49.64749 | 9.83291 | 18884 ft | 375 kts | 305° |
| 2026-05-07 06:46 | 49.66228 | 9.79982 | 18377 ft | 374 kts | 305° |
| 2026-05-07 06:46 | 49.67703 | 9.76677 | 17835 ft | 374 kts | 305° |
| 2026-05-07 06:46 | 49.69177 | 9.73372 | 17303 ft | 372 kts | 305° |
| 2026-05-07 06:47 | 49.70644 | 9.70076 | 16786 ft | 372 kts | 305° |
| 2026-05-07 06:47 | 49.72111 | 9.66781 | 16280 ft | 371 kts | 305° |
| 2026-05-07 06:47 | 49.73548 | 9.63548 | 15777 ft | 362 kts | 305° |
| 2026-05-07 06:47 | 49.74987 | 9.60302 | 15111 ft | 368 kts | 305° |
| 2026-05-07 06:48 | 49.76433 | 9.57038 | 14590 ft | 368 kts | 304° |
| 2026-05-07 06:48 | 49.77891 | 9.53794 | 14082 ft | 366 kts | 308° |
| 2026-05-07 06:48 | 49.79684 | 9.51150 | 13495 ft | 355 kts | 322° |
| 2026-05-07 06:48 | 49.81628 | 9.48899 | 12971 ft | 342 kts | 323° |
| 2026-05-07 06:49 | 49.83534 | 9.46720 | 12474 ft | 330 kts | 323° |
| 2026-05-07 06:49 | 49.85338 | 9.44666 | 12071 ft | 325 kts | 323° |
| 2026-05-07 06:49 | 49.87156 | 9.42604 | 11695 ft | 323 kts | 323° |
| 2026-05-07 06:49 | 49.88971 | 9.40558 | 11394 ft | 322 kts | 323° |
| 2026-05-07 06:50 | 49.90789 | 9.38518 | 10895 ft | 324 kts | 323° |
| 2026-05-07 06:50 | 49.92625 | 9.36470 | 10387 ft | 326 kts | 323° |
| 2026-05-07 06:50 | 49.94445 | 9.34450 | 9885 ft | 317 kts | 323° |
| 2026-05-07 06:50 | 49.96203 | 9.32508 | 9515 ft | 302 kts | 323° |
| 2026-05-07 06:51 | 49.97879 | 9.30659 | 9202 ft | 288 kts | 323° |
| 2026-05-07 06:51 | 49.99483 | 9.28894 | 8875 ft | 276 kts | 323° |
| 2026-05-07 06:51 | 50.00898 | 9.26987 | 8550 ft | 265 kts | 309° |
| 2026-05-07 06:51 | 50.01958 | 9.24704 | 8233 ft | 256 kts | 304° |
| 2026-05-07 06:52 | 50.02930 | 9.22441 | 7914 ft | 248 kts | 303° |
| 2026-05-07 06:52 | 50.03877 | 9.20239 | 7610 ft | 242 kts | 303° |
| 2026-05-07 06:52 | 50.04818 | 9.18056 | 7291 ft | 244 kts | 303° |
| 2026-05-07 06:52 | 50.05769 | 9.15856 | 6934 ft | 247 kts | 303° |
| 2026-05-07 06:53 | 50.06717 | 9.13612 | 6587 ft | 248 kts | 304° |
| 2026-05-07 06:53 | 50.07631 | 9.11341 | 6307 ft | 246 kts | 303° |
| 2026-05-07 06:53 | 50.08524 | 9.09110 | 5985 ft | 240 kts | 303° |
| 2026-05-07 06:53 | 50.09359 | 9.06906 | 5643 ft | 234 kts | 295° |
| 2026-05-07 06:54 | 50.09816 | 9.04483 | 5363 ft | 232 kts | 284° |
| 2026-05-07 06:54 | 50.10142 | 9.02038 | 5130 ft | 229 kts | 283° |
| 2026-05-07 06:54 | 50.10452 | 8.99610 | 4813 ft | 229 kts | 283° |
| 2026-05-07 06:54 | 50.10767 | 8.97166 | 4443 ft | 232 kts | 283° |
| 2026-05-07 06:55 | 50.11086 | 8.94700 | 4145 ft | 231 kts | 283° |
| 2026-05-07 06:55 | 50.11407 | 8.92284 | 4009 ft | 222 kts | 283° |
| 2026-05-07 06:55 | 50.11608 | 8.89970 | 4003 ft | 211 kts | 272° |
| 2026-05-07 06:55 | 50.11419 | 8.87795 | 3977 ft | 202 kts | 257° |
| 2026-05-07 06:56 | 50.10971 | 8.85742 | 4013 ft | 201 kts | 252° |
| 2026-05-07 06:56 | 50.10470 | 8.83689 | 3708 ft | 202 kts | 252° |
| 2026-05-07 06:56 | 50.09984 | 8.81666 | 3468 ft | 197 kts | 253° |
| 2026-05-07 06:56 | 50.09510 | 8.79678 | 3214 ft | 194 kts | 253° |
| 2026-05-07 06:57 | 50.09055 | 8.77766 | 3000 ft | 181 kts | 253° |
| 2026-05-07 06:57 | 50.08630 | 8.75978 | 2770 ft | 174 kts | 253° |
| 2026-05-07 06:57 | 50.08215 | 8.74234 | 2537 ft | 171 kts | 253° |
| 2026-05-07 06:57 | 50.07802 | 8.72499 | 2307 ft | 171 kts | 253° |
| 2026-05-07 06:58 | 50.07398 | 8.70804 | 2087 ft | 165 kts | 253° |
| 2026-05-07 06:58 | 50.07027 | 8.69246 | 1885 ft | 164 kts | 254° |
| 2026-05-07 06:58 | 50.06641 | 8.67627 | 1659 ft | 164 kts | 253° |
| 2026-05-07 06:58 | 50.06261 | 8.66032 | 1455 ft | 151 kts | 253° |
| 2026-05-07 06:59 | 50.05902 | 8.64525 | 1230 ft | 146 kts | 252° |
| 2026-05-07 06:59 | 50.05551 | 8.63064 | 1005 ft | 143 kts | 252° |
| 2026-05-07 06:59 | 50.05197 | 8.61632 | 825 ft | 142 kts | 252° |
| 2026-05-07 06:59 | 50.04970 | 8.60666 | 692 ft | 145 kts | 253° |
| 2026-05-07 07:00 | 50.04627 | 8.59213 | 508 ft | 142 kts | 253° |
| 2026-05-07 07:00 | 50.04286 | 8.57768 | 367 ft | 134 kts | 253° |
| 2026-05-07 07:00 | 50.04010 | 8.56590 | 360 ft | 95 kts | 250° |
| 2026-05-07 07:00 | 50.03834 | 8.55854 | 356 ft | 55 kts | 250° |
| 2026-05-07 07:01 | 50.03783 | 8.55579 | 354 ft | 13 kts | 289° |
| 2026-05-07 07:01 | 50.03845 | 8.55514 | 356 ft | 9 kts | 339° |
| 2026-05-07 07:01 | 50.03879 | 8.55493 | 357 ft | 0 kts | 339° |
| 2026-05-07 07:01 | 50.03880 | 8.55493 | 357 ft | 1 kts | 339° |
| 2026-05-07 07:02 | 50.03920 | 8.55484 | 356 ft | 12 kts | 15° |
| 2026-05-07 07:02 | 50.03970 | 8.55620 | 359 ft | 18 kts | 70° |
| 2026-05-07 07:02 | 50.04021 | 8.55833 | 354 ft | 23 kts | 69° |
| 2026-05-07 07:02 | 50.04079 | 8.56075 | 358 ft | 25 kts | 69° |
| 2026-05-07 07:03 | 50.04140 | 8.56327 | 362 ft | 26 kts | 69° |
| 2026-05-07 07:03 | 50.04199 | 8.56579 | 360 ft | 25 kts | 69° |
| 2026-05-07 07:03 | 50.04259 | 8.56829 | 365 ft | 24 kts | 69° |
| 2026-05-07 07:03 | 50.04317 | 8.57071 | 365 ft | 24 kts | 70° |
| 2026-05-07 07:04 | 50.04376 | 8.57320 | 366 ft | 23 kts | 70° |
| 2026-05-07 07:04 | 50.04433 | 8.57556 | 367 ft | 24 kts | 69° |
| 2026-05-07 07:04 | 50.04487 | 8.57783 | 370 ft | 24 kts | 69° |
| 2026-05-07 07:04 | 50.04532 | 8.57974 | 369 ft | 14 kts | 69° |
| 2026-05-07 07:05 | 50.04612 | 8.58016 | 366 ft | 16 kts | 339° |
| 2026-05-07 07:05 | 50.04728 | 8.57948 | 365 ft | 19 kts | 339° |
| 2026-05-07 07:05 | 50.04840 | 8.57860 | 363 ft | 18 kts | 307° |
| 2026-05-07 07:05 | 50.04891 | 8.57677 | 362 ft | 19 kts | 293° |
| 2026-05-07 07:06 | 50.04933 | 8.57536 | 362 ft | 11 kts | 295° |
| 2026-05-07 07:06 | 50.04959 | 8.57493 | 360 ft | 5 kts | 358° |
| 2026-05-07 07:06 | 50.04999 | 8.57513 | 361 ft | 6 kts | 21° |
| 2026-05-07 07:06 | 50.05009 | 8.57519 | 361 ft | 0 kts | 21° |
| 2026-05-07 07:07 | 50.05010 | 8.57519 | 361 ft | 0 kts | 21° |